Time;durP1;ratioP1;P1;durP2;ratioP2;P2;SDS_P1;SDS_P2;PMS_P1;PMS_P2;Temp;Humidity;BMP_temperature;BMP_pressure;BME280_temperature;BME280_humidity;BME280_pressure;Samples;Min_cycle;Max_cycle;Signal;HPM_P1;HPM_P2
2024/01/21 00:15:13;;;;;;;;;;;1.20;74.20;;;;;;3974905;28;20121;-83
2024/01/21 00:18:38;;;;;;;;;;;;;;;;;;;;;
2024/01/21 00:21:06;;;;;;;;;;;1.20;73.20;;;;;;4014123;28;19926;-86
2024/01/21 00:23:26;;;;;;;;;;;1.10;73.10;;;;;;4142146;28;19944;-86
2024/01/21 00:25:47;;;;;;;;;;;1.10;73.00;;;;;;4151406;28;20657;-86
2024/01/21 00:28:07;;;;;;;;;;;1.10;73.20;;;;;;4149145;28;19921;-86
2024/01/21 00:30:28;;;;;;;;;;;1.10;72.80;;;;;;4147787;28;20503;-86
2024/01/21 00:32:48;;;;;;;;;;;1.10;73.00;;;;;;4139395;28;19995;-85
2024/01/21 00:35:09;;;;;;;;;;;1.10;73.00;;;;;;4131980;28;20341;-86
2024/01/21 00:37:30;;;;;;;;;;;1.10;73.00;;;;;;4136036;28;20404;-86
2024/01/21 00:39:50;;;;;;;;;;;1.10;73.10;;;;;;4132445;28;20421;-85
2024/01/21 00:42:03;;;;;;;;;;;1.10;73.10;;;;;;4136242;28;20954;-86
2024/01/21 00:44:04;;;;;;;;;;;1.10;72.90;;;;;;4107051;28;20215;-86
2024/01/21 00:46:05;;;;;;;;;;;1.10;73.10;;;;;;4130977;28;19968;-85
2024/01/21 00:48:06;;;;;;;;;;;1.10;73.00;;;;;;4132895;28;20481;-84
2024/01/21 00:50:08;;;;;;;;;;;1.10;73.10;;;;;;4133273;28;19917;-86
2024/01/21 00:52:11;;;;;;;;;;;1.10;73.00;;;;;;4164611;28;19920;-86
2024/01/21 00:54:12;;;;;;;;;;;1.10;72.80;;;;;;4150205;28;20016;-86
2024/01/21 00:56:12;;;;;;;;;;;1.10;72.80;;;;;;4123893;28;19953;-85
2024/01/21 00:58:13;;;;;;;;;;;1.00;72.70;;;;;;4152159;28;20382;-86
2024/01/21 01:00:14;;;;;;;;;;;1.00;72.50;;;;;;4136056;28;19914;-86
2024/01/21 01:02:14;;;;;;;;;;;1.00;71.60;;;;;;4124676;28;19957;-86
2024/01/21 01:04:15;;;;;;;;;;;1.00;71.90;;;;;;4155946;28;19928;-85
2024/01/21 01:06:16;;;;;;;;;;;1.00;71.60;;;;;;4139634;28;19944;-85
2024/01/21 01:08:17;;;;;;;;;;;1.00;71.70;;;;;;4168588;28;19920;-85
2024/01/21 01:10:19;;;;;;;;;;;1.00;71.60;;;;;;4153948;28;20378;-85
2024/01/21 01:12:19;;;;;;;;;;;1.00;71.50;;;;;;4141091;28;19920;-85
2024/01/21 01:14:20;;;;;;;;;;;0.90;71.20;;;;;;4155968;28;19917;-85
2024/01/21 01:16:21;;;;;;;;;;;0.90;71.20;;;;;;4125898;28;19968;-86
2024/01/21 01:18:21;;;;;;;;;;;0.90;71.20;;;;;;4167076;28;19913;-85
2024/01/21 01:20:22;;;;;;;;;;;0.90;71.20;;;;;;4136633;28;19917;-86
2024/01/21 01:22:23;;;;;;;;;;;0.90;71.30;;;;;;4107042;28;19918;-85
2024/01/21 01:24:44;;;;;;;;;;;0.90;71.20;;;;;;4142066;28;20394;-86
2024/01/21 01:27:04;;;;;;;;;;;1.00;71.40;;;;;;4143386;28;19920;-85
2024/01/21 01:29:25;;;;;;;;;;;0.90;70.80;;;;;;4146626;28;20404;-85
2024/01/21 01:31:45;;;;;;;;;;;1.00;71.00;;;;;;4153101;28;20685;-86
2024/01/21 01:34:06;;;;;;;;;;;0.90;70.50;;;;;;4138522;28;20000;-86
2024/01/21 01:36:27;;;;;;;;;;;0.90;70.40;;;;;;4135827;28;20501;-86
2024/01/21 01:38:48;;;;;;;;;;;0.90;70.20;;;;;;4162721;28;19928;-86
2024/01/21 01:41:09;;;;;;;;;;;1.00;70.00;;;;;;4167143;28;19920;-86
2024/01/21 01:43:29;;;;;;;;;;;1.00;70.10;;;;;;4151689;28;20359;-85
2024/01/21 01:45:50;;;;;;;;;;;0.90;69.70;;;;;;4154341;28;19920;-86
2024/01/21 01:48:11;;;;;;;;;;;0.90;69.70;;;;;;4142637;28;19919;-86
2024/01/21 01:50:32;;;;;;;;;;;0.90;69.90;;;;;;4133626;28;19956;-85
2024/01/21 01:52:52;;;;;;;;;;;0.90;69.80;;;;;;4155331;28;19920;-85
2024/01/21 01:55:13;;;;;;;;;;;0.80;69.80;;;;;;4153683;28;20064;-86
2024/01/21 01:57:34;;;;;;;;;;;0.80;70.00;;;;;;4136582;28;19920;-86
2024/01/21 01:59:54;;;;;;;;;;;0.80;70.10;;;;;;4135443;28;20447;-85
2024/01/21 02:01:55;;;;;;;;;;;0.80;71.10;;;;;;4131416;28;19917;-85
2024/01/21 02:03:56;;;;;;;;;;;0.80;70.10;;;;;;4151336;28;19923;-87
2024/01/21 02:05:57;;;;;;;;;;;0.80;70.00;;;;;;4152563;28;19916;-86
2024/01/21 02:07:57;;;;;;;;;;;0.80;69.90;;;;;;4148766;28;19909;-86
2024/01/21 02:10:01;;;;;;;;;;;0.80;70.00;;;;;;4136106;28;19922;-86
2024/01/21 02:12:03;;;;;;;;;;;0.80;69.90;;;;;;4164718;28;19936;-85
2024/01/21 02:14:03;;;;;;;;;;;0.80;69.70;;;;;;4157043;28;19915;-85
2024/01/21 02:16:04;;;;;;;;;;;0.80;69.70;;;;;;4139339;28;19914;-86
2024/01/21 02:18:05;;;;;;;;;;;0.80;69.60;;;;;;4151969;28;19909;-87
2024/01/21 02:20:07;;;;;;;;;;;0.70;69.20;;;;;;4133759;28;19946;-85
2024/01/21 02:22:08;;;;;;;;;;;0.70;69.10;;;;;;4151175;28;19924;-86
2024/01/21 02:24:12;;;;;;;;;;;0.70;69.00;;;;;;4135219;28;19918;-86
2024/01/21 02:26:13;;;;;;;;;;;0.70;69.10;;;;;;4148301;28;19925;-86
2024/01/21 02:28:34;;;;;;;;;;;0.70;69.00;;;;;;4137825;28;19913;-86
2024/01/21 02:30:54;;;;;;;;;;;0.80;69.20;;;;;;4138885;28;19953;-85
2024/01/21 02:33:15;;;;;;;;;;;0.80;69.50;;;;;;4153802;28;19920;-85
2024/01/21 02:35:36;;;;;;;;;;;0.80;69.30;;;;;;4132310;28;19917;-85
2024/01/21 02:37:56;;;;;;;;;;;0.80;69.10;;;;;;4149646;28;19917;-86
2024/01/21 02:40:17;;;;;;;;;;;0.80;69.30;;;;;;4153639;28;19921;-86
2024/01/21 02:42:37;;;;;;;;;;;0.80;68.90;;;;;;4154114;28;19920;-87
2024/01/21 02:44:58;;;;;;;;;;;0.80;68.60;;;;;;4152964;28;19968;-86
2024/01/21 02:47:19;;;;;;;;;;;0.90;68.80;;;;;;4140230;28;19963;-85
2024/01/21 02:49:23;;;;;;;;;;;0.80;68.90;;;;;;4134008;28;19933;-86
2024/01/21 02:51:24;;;;;;;;;;;0.80;68.80;;;;;;4134826;28;19974;-86
2024/01/21 02:53:24;;;;;;;;;;;0.80;68.80;;;;;;4167543;28;19917;-84
2024/01/21 02:55:25;;;;;;;;;;;0.80;68.90;;;;;;4156937;28;19921;-84
2024/01/21 02:57:26;;;;;;;;;;;0.80;68.90;;;;;;4150675;28;19917;-85
2024/01/21 02:59:26;;;;;;;;;;;0.80;68.70;;;;;;4147087;28;19917;-86
2024/01/21 03:01:27;;;;;;;;;;;0.80;68.50;;;;;;4153228;28;20509;-85
2024/01/21 03:03:27;;;;;;;;;;;0.80;68.70;;;;;;4135470;28;19928;-85
2024/01/21 03:05:28;;;;;;;;;;;0.80;68.50;;;;;;4140193;28;19989;-86
2024/01/21 03:07:28;;;;;;;;;;;0.80;68.60;;;;;;4145350;28;20324;-85
2024/01/21 03:09:29;;;;;;;;;;;0.80;68.10;;;;;;4175515;28;19959;-86
2024/01/21 03:11:31;;;;;;;;;;;0.80;68.10;;;;;;4135435;28;19975;-85
2024/01/21 03:13:32;;;;;;;;;;;0.80;68.30;;;;;;4155339;28;19917;-86
2024/01/21 03:15:32;;;;;;;;;;;0.80;68.40;;;;;;4134628;28;19922;-85
2024/01/21 03:17:33;;;;;;;;;;;0.80;68.10;;;;;;4146371;28;19918;-85
2024/01/21 03:19:34;;;;;;;;;;;0.80;68.00;;;;;;4121324;28;19933;-86
2024/01/21 03:21:34;;;;;;;;;;;0.80;68.00;;;;;;4149245;28;19936;-86
2024/01/21 03:23:36;;;;;;;;;;;0.80;67.90;;;;;;4138401;28;19920;-86
2024/01/21 03:25:36;;;;;;;;;;;0.80;67.90;;;;;;4121641;28;20294;-84
2024/01/21 03:27:57;;;;;;;;;;;0.80;68.10;;;;;;4152133;28;19956;-86
2024/01/21 03:29:57;;;;;;;;;;;0.90;67.60;;;;;;4136064;28;19913;-85
2024/01/21 03:32:18;;;;;;;;;;;0.90;67.90;;;;;;4153729;28;19913;-85
2024/01/21 03:34:42;;;;;;;;;;;1.00;68.00;;;;;;4154189;28;19918;-86
2024/01/21 03:37:03;;;;;;;;;;;0.90;67.90;;;;;;4136464;28;20205;-86
2024/01/21 03:39:23;;;;;;;;;;;0.90;67.90;;;;;;4154472;28;19931;-85
2024/01/21 03:41:45;;;;;;;;;;;0.90;67.90;;;;;;4148944;28;19923;-84
2024/01/21 03:44:05;;;;;;;;;;;1.00;68.10;;;;;;4150196;28;19916;-85
2024/01/21 03:46:26;;;;;;;;;;;0.90;67.80;;;;;;4165714;28;19917;-85
2024/01/21 03:48:46;;;;;;;;;;;1.00;67.80;;;;;;4168973;28;19919;-86
2024/01/21 03:51:09;;;;;;;;;;;1.00;67.70;;;;;;4155472;28;19925;-85
2024/01/21 03:53:29;;;;;;;;;;;1.00;67.70;;;;;;4143144;28;19921;-84
2024/01/21 03:55:30;;;;;;;;;;;1.00;67.30;;;;;;4139554;28;20075;-85
2024/01/21 03:57:30;;;;;;;;;;;1.00;67.60;;;;;;4151242;28;19921;-85
2024/01/21 03:59:33;;;;;;;;;;;1.00;67.50;;;;;;4137536;28;19930;-85
2024/01/21 04:01:34;;;;;;;;;;;1.00;67.40;;;;;;4153979;28;20436;-85
2024/01/21 04:03:34;;;;;;;;;;;1.00;67.60;;;;;;4154114;28;19925;-85
2024/01/21 04:05:35;;;;;;;;;;;1.00;67.30;;;;;;4125241;28;20280;-85
2024/01/21 04:07:36;;;;;;;;;;;1.00;67.40;;;;;;4142429;28;19988;-86
2024/01/21 04:09:36;;;;;;;;;;;1.00;67.40;;;;;;4154454;28;19913;-85
2024/01/21 04:11:37;;;;;;;;;;;1.00;67.50;;;;;;4141810;28;19913;-86
2024/01/21 04:13:39;;;;;;;;;;;1.00;67.30;;;;;;4129019;28;19925;-85
2024/01/21 04:15:40;;;;;;;;;;;1.00;67.30;;;;;;4142794;28;19916;-86
2024/01/21 04:17:42;;;;;;;;;;;1.10;67.20;;;;;;4145968;28;19921;-86
2024/01/21 04:20:07;;;;;;;;;;;1.00;66.90;;;;;;4157049;28;19917;-85
2024/01/21 04:22:18;;;;;;;;;;;1.10;67.10;;;;;;4142467;28;20286;-86
2024/01/21 04:24:39;;;;;;;;;;;1.10;66.60;;;;;;4154504;28;20384;-86
2024/01/21 04:26:59;;;;;;;;;;;1.10;67.20;;;;;;4142005;28;20160;-86
2024/01/21 04:29:20;;;;;;;;;;;1.10;66.80;;;;;;4155960;28;20173;-84
2024/01/21 04:31:44;;;;;;;;;;;1.10;66.60;;;;;;4151280;28;19913;-86
2024/01/21 04:34:04;;;;;;;;;;;1.10;66.70;;;;;;4154960;28;20315;-85
2024/01/21 04:36:25;;;;;;;;;;;1.10;66.20;;;;;;4148832;28;20079;-85
2024/01/21 04:38:46;;;;;;;;;;;1.10;66.40;;;;;;4157543;28;19917;-85
2024/01/21 04:41:06;;;;;;;;;;;1.10;66.40;;;;;;4153866;28;19959;-85
2024/01/21 04:43:27;;;;;;;;;;;1.10;66.10;;;;;;4153168;28;19968;-86
2024/01/21 04:45:27;;;;;;;;;;;1.10;66.30;;;;;;4151540;28;20283;-85
2024/01/21 04:47:28;;;;;;;;;;;1.10;66.10;;;;;;4157243;28;20362;-85
2024/01/21 04:49:28;;;;;;;;;;;1.30;66.40;;;;;;4157679;28;20741;-86
2024/01/21 04:51:30;;;;;;;;;;;1.10;66.40;;;;;;4121994;28;19918;-85
2024/01/21 04:53:31;;;;;;;;;;;1.20;66.40;;;;;;4145177;28;19983;-86
2024/01/21 04:55:31;;;;;;;;;;;1.20;66.00;;;;;;4149270;28;19917;-85
2024/01/21 04:57:32;;;;;;;;;;;1.30;66.20;;;;;;4155864;28;20339;-86
2024/01/21 04:59:32;;;;;;;;;;;1.20;65.90;;;;;;4153633;28;20390;-85
2024/01/21 05:01:33;;;;;;;;;;;1.20;65.80;;;;;;4156388;28;19979;-84
2024/01/21 05:03:34;;;;;;;;;;;1.20;65.70;;;;;;4149744;28;19932;-86
2024/01/21 05:05:37;;;;;;;;;;;1.40;65.20;;;;;;4124207;28;19918;-86
2024/01/21 05:07:38;;;;;;;;;;;1.20;65.30;;;;;;4133051;28;19933;-84
2024/01/21 05:09:39;;;;;;;;;;;1.30;65.20;;;;;;4139519;28;19913;-85
2024/01/21 05:11:39;;;;;;;;;;;1.30;65.50;;;;;;4134454;28;19948;-86
2024/01/21 05:13:41;;;;;;;;;;;1.30;65.00;;;;;;4134516;28;20390;-84
2024/01/21 05:15:41;;;;;;;;;;;1.40;65.30;;;;;;4135235;28;19933;-86
2024/01/21 05:18:02;;;;;;;;;;;1.40;64.70;;;;;;4150381;28;19921;-86
2024/01/21 05:20:23;;;;;;;;;;;1.40;64.90;;;;;;4153846;28;20429;-85
2024/01/21 05:22:43;;;;;;;;;;;1.40;64.70;;;;;;4155436;28;19917;-86
2024/01/21 05:24:55;;;;;;;;;;;1.50;64.70;;;;;;4170684;28;20149;-85
2024/01/21 05:27:15;;;;;;;;;;;1.50;64.10;;;;;;4155076;28;19913;-86
2024/01/21 05:29:36;;;;;;;;;;;1.50;64.60;;;;;;4168001;28;19913;-85
2024/01/21 05:31:56;;;;;;;;;;;1.50;64.40;;;;;;4155772;28;19913;-85
2024/01/21 05:34:17;;;;;;;;;;;1.60;64.20;;;;;;4148919;28;19928;-86
2024/01/21 05:36:37;;;;;;;;;;;1.60;64.20;;;;;;4143734;28;19959;-84
2024/01/21 05:38:58;;;;;;;;;;;1.60;64.20;;;;;;4139441;28;20278;-86
2024/01/21 05:41:18;;;;;;;;;;;1.70;64.10;;;;;;4139176;28;19918;-86
2024/01/21 05:43:39;;;;;;;;;;;1.70;64.00;;;;;;4152053;28;20000;-86
2024/01/21 05:45:59;;;;;;;;;;;1.70;64.20;;;;;;4156785;28;19976;-85
2024/01/21 05:48:20;;;;;;;;;;;1.80;64.10;;;;;;4151312;28;19924;-85
2024/01/21 05:50:43;;;;;;;;;;;1.80;63.80;;;;;;4152918;28;19917;-86
2024/01/21 05:53:05;;;;;;;;;;;1.80;63.70;;;;;;4155646;28;19913;-85
2024/01/21 05:55:26;;;;;;;;;;;1.90;63.60;;;;;;4164341;28;19927;-86
2024/01/21 05:57:32;;;;;;;;;;;1.80;63.50;;;;;;4149135;28;20092;-86
2024/01/21 05:59:33;;;;;;;;;;;1.90;63.10;;;;;;4149864;28;19921;-85
2024/01/21 06:01:33;;;;;;;;;;;1.90;63.10;;;;;;4138230;28;20532;-85
2024/01/21 06:03:36;;;;;;;;;;;1.90;62.90;;;;;;4149395;28;20390;-86
2024/01/21 06:05:36;;;;;;;;;;;1.90;63.20;;;;;;4150396;28;20374;-85
2024/01/21 06:07:37;;;;;;;;;;;1.90;63.10;;;;;;4155926;28;19952;-84
2024/01/21 06:09:37;;;;;;;;;;;2.00;63.20;;;;;;4164983;28;19920;-85
2024/01/21 06:11:39;;;;;;;;;;;2.00;62.60;;;;;;4152461;28;20295;-85
2024/01/21 06:13:40;;;;;;;;;;;2.00;62.50;;;;;;4152577;28;19921;-86
2024/01/21 06:16:01;;;;;;;;;;;2.00;62.50;;;;;;4149715;28;19921;-86
2024/01/21 06:18:01;;;;;;;;;;;2.00;62.20;;;;;;4136324;28;19921;-86
2024/01/21 06:20:22;;;;;;;;;;;2.10;62.20;;;;;;4142045;28;20008;-85
2024/01/21 06:22:42;;;;;;;;;;;2.10;62.30;;;;;;4135446;28;20036;-85
2024/01/21 06:25:03;;;;;;;;;;;2.10;61.90;;;;;;4138626;28;19917;-86
2024/01/21 06:27:24;;;;;;;;;;;2.10;62.10;;;;;;4154379;28;19920;-85
2024/01/21 06:29:45;;;;;;;;;;;2.10;61.70;;;;;;4156371;28;19917;-85
2024/01/21 06:32:05;;;;;;;;;;;2.10;61.40;;;;;;4143632;28;19976;-86
2024/01/21 06:34:26;;;;;;;;;;;2.10;61.80;;;;;;4166584;28;19921;-85
2024/01/21 06:36:46;;;;;;;;;;;2.20;61.70;;;;;;4134300;28;19914;-84
2024/01/21 06:39:07;;;;;;;;;;;2.20;61.20;;;;;;4152830;28;20306;-86
2024/01/21 06:41:27;;;;;;;;;;;2.20;61.20;;;;;;4155706;28;20436;-86
2024/01/21 06:43:48;;;;;;;;;;;2.30;61.40;;;;;;4154645;28;20516;-86
2024/01/21 06:46:09;;;;;;;;;;;2.20;61.10;;;;;;4148076;28;20359;-86
2024/01/21 06:48:09;;;;;;;;;;;2.20;61.10;;;;;;4122178;28;19921;-86
2024/01/21 06:50:10;;;;;;;;;;;2.20;61.20;;;;;;4150761;28;19921;-85
2024/01/21 06:52:10;;;;;;;;;;;2.20;61.00;;;;;;4138475;28;20486;-86
2024/01/21 06:54:11;;;;;;;;;;;2.20;60.70;;;;;;4116821;28;19994;-85
2024/01/21 06:56:12;;;;;;;;;;;2.20;60.70;;;;;;4138158;28;19914;-85
2024/01/21 06:58:36;;;;;;;;;;;2.20;60.60;;;;;;4142043;28;19996;-86
2024/01/21 07:00:56;;;;;;;;;;;2.20;60.10;;;;;;4154956;28;20282;-85
2024/01/21 07:03:18;;;;;;;;;;;2.20;59.90;;;;;;4139500;28;20365;-86
2024/01/21 07:05:24;;;;;;;;;;;2.20;60.30;;;;;;4136312;28;19913;-86
2024/01/21 07:07:45;;;;;;;;;;;2.20;60.00;;;;;;4138426;28;20295;-85
2024/01/21 07:10:06;;;;;;;;;;;2.20;60.10;;;;;;4152988;28;20386;-85
2024/01/21 07:12:26;;;;;;;;;;;2.20;60.50;;;;;;4154362;28;19920;-86
2024/01/21 07:14:47;;;;;;;;;;;2.20;60.20;;;;;;4153372;28;20432;-86
2024/01/21 07:17:07;;;;;;;;;;;2.20;60.30;;;;;;4141639;28;19977;-85
2024/01/21 07:19:28;;;;;;;;;;;2.10;60.30;;;;;;4139119;28;20482;-86
2024/01/21 07:21:49;;;;;;;;;;;2.10;60.10;;;;;;4154490;28;20419;-86
2024/01/21 07:24:09;;;;;;;;;;;2.20;60.20;;;;;;4156149;28;20339;-86
2024/01/21 07:26:29;;;;;;;;;;;2.10;59.70;;;;;;4141788;28;19965;-86
2024/01/21 07:28:51;;;;;;;;;;;2.20;59.70;;;;;;4156734;28;20655;-86
2024/01/21 07:30:51;;;;;;;;;;;2.20;59.80;;;;;;4153624;28;20547;-86
2024/01/21 07:32:52;;;;;;;;;;;2.20;60.70;;;;;;4138735;28;20048;-87
2024/01/21 07:34:52;;;;;;;;;;;2.20;59.90;;;;;;4137620;28;19952;-86
2024/01/21 07:36:53;;;;;;;;;;;2.20;59.50;;;;;;4132160;28;19921;-86
2024/01/21 07:38:54;;;;;;;;;;;2.20;59.50;;;;;;4155973;28;19920;-86
2024/01/21 07:40:55;;;;;;;;;;;2.20;59.50;;;;;;4165466;28;19924;-85
2024/01/21 07:42:55;;;;;;;;;;;2.20;59.70;;;;;;4173693;28;19924;-86
2024/01/21 07:44:56;;;;;;;;;;;2.20;59.40;;;;;;4156160;28;19972;-87
2024/01/21 07:46:57;;;;;;;;;;;2.20;59.30;;;;;;4135393;28;19922;-85
2024/01/21 07:48:57;;;;;;;;;;;2.20;59.30;;;;;;4146429;28;21035;-86
2024/01/21 07:50:58;;;;;;;;;;;2.30;59.40;;;;;;4138286;28;19925;-86
2024/01/21 07:53:02;;;;;;;;;;;2.20;59.30;;;;;;4173546;28;19975;-86
2024/01/21 07:55:22;;;;;;;;;;;2.30;59.40;;;;;;4153269;28;19924;-86
2024/01/21 07:57:43;;;;;;;;;;;2.30;59.20;;;;;;4168885;28;20504;-87
2024/01/21 08:00:04;;;;;;;;;;;2.30;59.30;;;;;;4144036;28;20024;-86
2024/01/21 08:02:27;;;;;;;;;;;2.30;59.40;;;;;;4159708;28;20374;-87
2024/01/21 08:04:48;;;;;;;;;;;2.30;59.40;;;;;;4155130;28;19924;-87
2024/01/21 08:07:08;;;;;;;;;;;2.30;59.20;;;;;;4144056;28;19918;-86
2024/01/21 08:09:29;;;;;;;;;;;2.30;58.70;;;;;;4156608;28;19992;-86
2024/01/21 08:11:50;;;;;;;;;;;2.30;58.20;;;;;;4167300;28;19917;-87
2024/01/21 08:14:11;;;;;;;;;;;2.40;58.70;;;;;;4157567;28;19921;-86
2024/01/21 08:16:32;;;;;;;;;;;2.40;58.50;;;;;;4137130;28;19921;-87
2024/01/21 08:18:52;;;;;;;;;;;2.30;58.40;;;;;;4153740;28;19922;-86
2024/01/21 08:21:13;;;;;;;;;;;2.40;58.20;;;;;;4144334;28;19924;-85
2024/01/21 08:23:35;;;;;;;;;;;2.40;58.20;;;;;;4154332;28;20449;-86
2024/01/21 08:25:55;;;;;;;;;;;2.40;58.30;;;;;;4149493;28;19917;-84
2024/01/21 08:27:56;;;;;;;;;;;2.40;58.20;;;;;;4138059;28;19913;-85
2024/01/21 08:29:56;;;;;;;;;;;2.40;57.60;;;;;;4155878;28;19913;-86
2024/01/21 08:31:59;;;;;;;;;;;2.40;58.00;;;;;;4152838;28;19929;-85
2024/01/21 08:33:59;;;;;;;;;;;2.50;58.00;;;;;;4154914;28;19913;-86
2024/01/21 08:36:00;;;;;;;;;;;2.50;58.00;;;;;;4144476;28;19917;-86
2024/01/21 08:38:01;;;;;;;;;;;2.40;57.30;;;;;;4150907;28;19967;-85
2024/01/21 08:40:01;;;;;;;;;;;2.50;57.20;;;;;;4147138;28;19925;-86
2024/01/21 08:42:03;;;;;;;;;;;2.50;57.20;;;;;;4134577;28;19948;-84
2024/01/21 08:44:04;;;;;;;;;;;2.50;57.70;;;;;;4136468;28;19921;-86
2024/01/21 08:46:05;;;;;;;;;;;2.50;57.20;;;;;;4150644;28;19943;-85
2024/01/21 08:48:11;;;;;;;;;;;2.50;57.50;;;;;;4131560;28;20364;-85
2024/01/21 08:50:32;;;;;;;;;;;2.50;57.20;;;;;;4143006;28;19925;-86
2024/01/21 08:52:38;;;;;;;;;;;2.50;57.00;;;;;;4158668;28;20028;-85
2024/01/21 08:54:59;;;;;;;;;;;2.60;57.30;;;;;;4137694;28;19977;-85
2024/01/21 08:57:20;;;;;;;;;;;2.60;57.20;;;;;;4135390;28;19964;-85
2024/01/21 08:59:40;;;;;;;;;;;2.60;57.20;;;;;;4154271;28;19925;-84
2024/01/21 09:02:01;;;;;;;;;;;2.60;57.10;;;;;;4144988;28;19921;-85
2024/01/21 09:04:05;;;;;;;;;;;2.60;56.70;;;;;;4113646;28;19921;-84
2024/01/21 09:06:26;;;;;;;;;;;2.60;55.90;;;;;;4144383;28;19918;-86
2024/01/21 09:08:51;;;;;;;;;;;2.60;56.30;;;;;;4148366;28;19913;-85
2024/01/21 09:11:12;;;;;;;;;;;2.70;55.90;;;;;;4151785;28;19917;-85
2024/01/21 09:13:33;;;;;;;;;;;2.70;56.00;;;;;;4169706;28;19976;-85
2024/01/21 09:15:41;;;;;;;;;;;2.70;55.90;;;;;;4149241;28;19972;-86
2024/01/21 09:18:02;;;;;;;;;;;2.80;56.10;;;;;;4148485;28;20008;-85
2024/01/21 09:20:22;;;;;;;;;;;2.70;55.70;;;;;;4153343;28;19921;-86
2024/01/21 09:22:28;;;;;;;;;;;2.80;55.70;;;;;;4129975;28;19997;-85
2024/01/21 09:24:49;;;;;;;;;;;2.80;55.40;;;;;;4155272;28;19964;-85
2024/01/21 09:27:09;;;;;;;;;;;2.80;55.50;;;;;;4149037;28;20143;-86
2024/01/21 09:29:30;;;;;;;;;;;2.90;55.10;;;;;;4147465;28;19918;-83
2024/01/21 09:31:55;;;;;;;;;;;2.90;53.90;;;;;;4156022;28;19949;-84
2024/01/21 09:34:15;;;;;;;;;;;2.90;55.00;;;;;;4153660;28;19917;-84
2024/01/21 09:36:37;;;;;;;;;;;2.90;54.10;;;;;;4165102;28;19921;-85
2024/01/21 09:38:58;;;;;;;;;;;2.90;54.30;;;;;;4158202;28;19972;-86
2024/01/21 09:41:20;;;;;;;;;;;3.00;53.20;;;;;;4152696;28;19920;-85
2024/01/21 09:43:44;;;;;;;;;;;3.00;53.70;;;;;;4161815;28;19921;-85
2024/01/21 09:45:45;;;;;;;;;;;3.00;52.80;;;;;;4140357;28;20086;-84
2024/01/21 09:47:47;;;;;;;;;;;3.00;53.00;;;;;;4147369;28;19913;-84
2024/01/21 09:49:49;;;;;;;;;;;3.00;53.40;;;;;;4168304;28;20205;-85
2024/01/21 09:51:50;;;;;;;;;;;3.00;52.30;;;;;;4156816;28;20153;-85
2024/01/21 09:53:50;;;;;;;;;;;3.10;52.60;;;;;;4174621;28;19915;-84
2024/01/21 09:55:55;;;;;;;;;;;3.10;51.80;;;;;;4167876;28;19905;-86
2024/01/21 09:57:57;;;;;;;;;;;3.10;51.20;;;;;;4188721;28;19998;-85
2024/01/21 10:00:18;;;;;;;;;;;3.10;52.40;;;;;;4158692;28;19974;-83
2024/01/21 10:02:19;;;;;;;;;;;3.10;52.40;;;;;;4160944;28;19979;-83
2024/01/21 10:04:40;;;;;;;;;;;3.10;52.50;;;;;;4164835;28;19924;-83
2024/01/21 10:07:00;;;;;;;;;;;3.20;51.10;;;;;;4155267;28;19917;-83
2024/01/21 10:09:22;;;;;;;;;;;3.20;51.30;;;;;;4157428;28;20000;-84
2024/01/21 10:11:30;;;;;;;;;;;3.20;51.20;;;;;;4154030;28;19910;-83
2024/01/21 10:13:50;;;;;;;;;;;3.20;51.00;;;;;;4164462;28;19914;-83
2024/01/21 10:16:12;;;;;;;;;;;3.20;51.00;;;;;;4159886;28;19921;-83
2024/01/21 10:18:21;;;;;;;;;;;3.20;50.50;;;;;;4150973;28;20361;-84
2024/01/21 10:20:41;;;;;;;;;;;3.20;50.60;;;;;;4143152;28;19921;-84
2024/01/21 10:22:44;;;;;;;;;;;3.30;50.70;;;;;;4180851;28;19944;-84
2024/01/21 10:24:45;;;;;;;;;;;3.30;50.80;;;;;;4163037;28;19979;-83
2024/01/21 10:26:46;;;;;;;;;;;3.30;50.30;;;;;;4179175;28;19917;-83
2024/01/21 10:29:03;;;;;;;;;;;3.30;49.80;;;;;;4162620;28;19901;-83
2024/01/21 10:31:24;;;;;;;;;;;3.30;49.90;;;;;;4177185;28;19913;-83
2024/01/21 10:33:45;;;;;;;;;;;3.30;49.30;;;;;;4157049;28;20132;-84
2024/01/21 10:36:05;;;;;;;;;;;3.30;50.10;;;;;;4134953;28;19985;-84
2024/01/21 10:38:29;;;;;;;;;;;3.30;48.70;;;;;;4151147;28;19924;-84
2024/01/21 10:40:49;;;;;;;;;;;3.40;49.50;;;;;;4149618;28;19921;-84
2024/01/21 10:43:02;;;;;;;;;;;3.40;49.50;;;;;;4146777;28;19917;-84
2024/01/21 10:45:23;;;;;;;;;;;3.40;50.20;;;;;;4169246;28;19923;-84
2024/01/21 10:47:44;;;;;;;;;;;3.40;48.90;;;;;;4155231;28;19917;-83
2024/01/21 10:50:05;;;;;;;;;;;3.40;48.70;;;;;;4150715;28;19954;-84
2024/01/21 10:52:26;;;;;;;;;;;3.40;47.20;;;;;;4149902;28;20008;-83
2024/01/21 10:54:47;;;;;;;;;;;3.50;49.00;;;;;;4140559;28;19921;-84
2024/01/21 10:57:08;;;;;;;;;;;3.50;49.50;;;;;;4150386;28;19921;-83
2024/01/21 10:59:30;;;;;;;;;;;3.50;49.70;;;;;;4149495;28;19925;-83
2024/01/21 11:01:51;;;;;;;;;;;3.50;48.30;;;;;;4151358;28;19944;-84
2024/01/21 11:04:13;;;;;;;;;;;3.60;47.80;;;;;;4136977;28;19918;-84
2024/01/21 11:06:34;;;;;;;;;;;3.60;46.90;;;;;;4138007;28;20012;-83
2024/01/21 11:08:55;;;;;;;;;;;3.60;46.80;;;;;;4158278;28;19928;-83
2024/01/21 11:11:16;;;;;;;;;;;3.60;46.20;;;;;;4152629;28;20128;-84
2024/01/21 11:13:50;;;;;;;;;;;3.70;46.60;;;;;;4150223;28;19967;-83
2024/01/21 11:16:11;;;;;;;;;;;3.70;47.60;;;;;;4135193;28;20866;-85
2024/01/21 11:18:32;;;;;;;;;;;3.70;47.90;;;;;;4151465;28;19996;-83
2024/01/21 11:20:56;;;;;;;;;;;3.80;46.80;;;;;;4151492;28;19948;-84
2024/01/21 11:22:58;;;;;;;;;;;3.70;47.60;;;;;;4131746;28;20004;-83
2024/01/21 11:24:59;;;;;;;;;;;3.80;48.50;;;;;;4150907;28;19974;-84
2024/01/21 11:27:01;;;;;;;;;;;3.70;47.30;;;;;;4151872;28;20363;-83
2024/01/21 11:29:02;;;;;;;;;;;3.80;48.90;;;;;;4154351;28;20422;-84
2024/01/21 11:31:06;;;;;;;;;;;3.90;49.00;;;;;;4154528;28;20327;-83
2024/01/21 11:33:06;;;;;;;;;;;3.80;48.80;;;;;;4155014;28;19917;-84
2024/01/21 11:35:13;;;;;;;;;;;3.80;49.20;;;;;;4156079;28;20176;-83
2024/01/21 11:37:14;;;;;;;;;;;3.80;50.20;;;;;;4151784;28;20000;-83
2024/01/21 11:39:15;;;;;;;;;;;3.80;51.00;;;;;;4134338;28;19929;-83
2024/01/21 11:41:18;;;;;;;;;;;3.70;51.40;;;;;;4153444;28;20496;-82
2024/01/21 11:43:18;;;;;;;;;;;3.70;51.90;;;;;;4150111;28;19913;-84
2024/01/21 11:45:19;;;;;;;;;;;3.70;53.10;;;;;;4119863;28;19984;-83
2024/01/21 11:47:20;;;;;;;;;;;3.70;53.40;;;;;;4147247;28;19917;-83
2024/01/21 11:49:21;;;;;;;;;;;3.60;54.80;;;;;;4150732;28;19928;-83
2024/01/21 11:51:22;;;;;;;;;;;3.60;54.50;;;;;;4161881;28;19923;-84
2024/01/21 11:53:23;;;;;;;;;;;3.50;54.60;;;;;;4149899;28;20443;-83
2024/01/21 11:55:23;;;;;;;;;;;3.60;55.20;;;;;;4124496;28;19925;-83
2024/01/21 11:57:24;;;;;;;;;;;3.40;55.90;;;;;;4136122;28;20642;-84
2024/01/21 11:59:25;;;;;;;;;;;3.40;56.00;;;;;;4164580;28;20023;-83
2024/01/21 12:01:30;;;;;;;;;;;3.40;57.00;;;;;;4135036;28;19924;-83
2024/01/21 12:03:31;;;;;;;;;;;3.30;57.90;;;;;;4153425;28;19928;-83
2024/01/21 12:05:31;;;;;;;;;;;3.30;58.50;;;;;;4134662;28;19914;-85
2024/01/21 12:07:32;;;;;;;;;;;3.20;59.10;;;;;;4168030;28;20399;-83
2024/01/21 12:09:33;;;;;;;;;;;3.10;58.90;;;;;;4159028;28;19952;-83
2024/01/21 12:11:35;;;;;;;;;;;3.10;59.60;;;;;;4150502;28;19931;-82
2024/01/21 12:13:37;;;;;;;;;;;3.00;59.40;;;;;;4156738;28;20008;-83
2024/01/21 12:15:38;;;;;;;;;;;3.00;60.40;;;;;;4122161;28;19924;-83
2024/01/21 12:17:38;;;;;;;;;;;3.00;61.40;;;;;;4141848;28;19914;-82
2024/01/21 12:19:50;;;;;;;;;;;2.90;61.10;;;;;;4158236;28;19927;-83
2024/01/21 12:21:57;;;;;;;;;;;2.80;61.40;;;;;;4153867;28;19917;-83
2024/01/21 12:24:20;;;;;;;;;;;2.80;61.70;;;;;;4155459;28;20048;-84
2024/01/21 12:26:21;;;;;;;;;;;2.80;61.40;;;;;;4155866;28;19967;-82
2024/01/21 12:29:02;;;;;;;;;;;2.80;61.70;;;;;;4159053;28;19920;-83
2024/01/21 12:31:27;;;;;;;;;;;2.80;61.90;;;;;;4153251;28;20012;-83
2024/01/21 12:33:48;;;;;;;;;;;2.80;62.30;;;;;;4153260;28;19917;-83
2024/01/21 12:36:09;;;;;;;;;;;2.80;62.80;;;;;;4152869;28;19953;-83
2024/01/21 12:38:29;;;;;;;;;;;2.70;63.20;;;;;;4154559;28;20926;-83
2024/01/21 12:40:49;;;;;;;;;;;2.80;63.10;;;;;;4153580;28;19921;-83
2024/01/21 12:42:50;;;;;;;;;;;2.80;62.70;;;;;;4156739;28;20412;-83
2024/01/21 12:45:11;;;;;;;;;;;2.70;63.20;;;;;;4152199;28;19922;-82
2024/01/21 12:47:31;;;;;;;;;;;2.70;63.60;;;;;;4162204;28;19943;-83
2024/01/21 12:49:52;;;;;;;;;;;2.70;63.80;;;;;;4150307;28;20001;-83
2024/01/21 12:52:12;;;;;;;;;;;2.60;64.10;;;;;;4151949;28;20016;-84
2024/01/21 12:54:33;;;;;;;;;;;2.70;64.20;;;;;;4139493;28;19965;-82
2024/01/21 12:56:54;;;;;;;;;;;2.60;65.00;;;;;;4149010;28;20703;-83
2024/01/21 12:59:17;;;;;;;;;;;2.60;65.00;;;;;;4155462;28;19920;-83
2024/01/21 13:01:37;;;;;;;;;;;2.60;65.30;;;;;;4136677;28;20222;-84
2024/01/21 13:03:38;;;;;;;;;;;2.60;65.40;;;;;;4152747;28;19921;-83
2024/01/21 13:05:39;;;;;;;;;;;2.60;65.50;;;;;;4139162;28;19917;-83
2024/01/21 13:07:40;;;;;;;;;;;2.60;65.30;;;;;;4133037;28;19918;-84
2024/01/21 13:09:40;;;;;;;;;;;2.60;65.30;;;;;;4138093;28;20648;-84
2024/01/21 13:11:41;;;;;;;;;;;2.60;65.30;;;;;;4155395;28;19917;-84